sensor_id;sensor_type;location;lat;lon;timestamp;P1;durP1;ratioP1;P2;durP2;ratioP2
46651;SDS011;32377;52.182;5.398;2023-04-06T00:02:06;28.13;;;15.17;;
46651;SDS011;32377;52.182;5.398;2023-04-06T00:04:31;26.33;;;14.97;;
46651;SDS011;32377;52.182;5.398;2023-04-06T00:06:57;25.73;;;15.30;;
46651;SDS011;32377;52.182;5.398;2023-04-06T00:09:22;32.90;;;15.23;;
46651;SDS011;32377;52.182;5.398;2023-04-06T00:11:48;26.73;;;15.43;;
46651;SDS011;32377;52.182;5.398;2023-04-06T00:14:14;30.57;;;15.53;;
46651;SDS011;32377;52.182;5.398;2023-04-06T00:16:42;39.67;;;14.93;;
46651;SDS011;32377;52.182;5.398;2023-04-06T00:19:07;25.80;;;15.07;;
46651;SDS011;32377;52.182;5.398;2023-04-06T00:21:33;27.97;;;14.70;;
46651;SDS011;32377;52.182;5.398;2023-04-06T00:23:58;25.73;;;14.43;;
46651;SDS011;32377;52.182;5.398;2023-04-06T00:26:24;28.00;;;14.13;;
46651;SDS011;32377;52.182;5.398;2023-04-06T00:28:50;26.40;;;15.17;;
46651;SDS011;32377;52.182;5.398;2023-04-06T00:31:17;32.10;;;15.00;;
46651;SDS011;32377;52.182;5.398;2023-04-06T00:33:42;27.83;;;15.43;;
46651;SDS011;32377;52.182;5.398;2023-04-06T00:36:08;27.30;;;14.73;;
46651;SDS011;32377;52.182;5.398;2023-04-06T00:38:33;27.33;;;14.97;;
46651;SDS011;32377;52.182;5.398;2023-04-06T00:40:59;29.30;;;14.37;;
46651;SDS011;32377;52.182;5.398;2023-04-06T00:43:25;30.80;;;14.40;;
46651;SDS011;32377;52.182;5.398;2023-04-06T00:45:50;23.50;;;13.87;;
46651;SDS011;32377;52.182;5.398;2023-04-06T00:48:16;27.53;;;14.90;;
46651;SDS011;32377;52.182;5.398;2023-04-06T00:50:42;24.37;;;14.20;;
46651;SDS011;32377;52.182;5.398;2023-04-06T00:53:07;28.93;;;15.30;;
46651;SDS011;32377;52.182;5.398;2023-04-06T00:55:33;26.03;;;14.60;;
46651;SDS011;32377;52.182;5.398;2023-04-06T00:58:00;24.87;;;13.97;;
46651;SDS011;32377;52.182;5.398;2023-04-06T01:00:27;25.77;;;14.17;;
46651;SDS011;32377;52.182;5.398;2023-04-06T01:02:52;26.63;;;14.70;;
46651;SDS011;32377;52.182;5.398;2023-04-06T01:05:18;32.40;;;15.07;;
46651;SDS011;32377;52.182;5.398;2023-04-06T01:07:44;27.63;;;14.33;;
46651;SDS011;32377;52.182;5.398;2023-04-06T01:10:10;32.20;;;13.77;;
46651;SDS011;32377;52.182;5.398;2023-04-06T01:12:35;30.13;;;15.43;;
46651;SDS011;32377;52.182;5.398;2023-04-06T01:15:03;25.73;;;13.87;;
46651;SDS011;32377;52.182;5.398;2023-04-06T01:17:30;27.43;;;14.67;;
46651;SDS011;32377;52.182;5.398;2023-04-06T01:19:56;30.70;;;14.80;;
46651;SDS011;32377;52.182;5.398;2023-04-06T01:22:21;29.77;;;14.20;;
46651;SDS011;32377;52.182;5.398;2023-04-06T01:24:49;25.57;;;14.87;;
46651;SDS011;32377;52.182;5.398;2023-04-06T01:27:15;24.83;;;14.50;;
46651;SDS011;32377;52.182;5.398;2023-04-06T01:29:40;28.80;;;14.43;;
46651;SDS011;32377;52.182;5.398;2023-04-06T01:32:06;23.70;;;13.93;;
46651;SDS011;32377;52.182;5.398;2023-04-06T01:34:32;24.90;;;13.90;;
46651;SDS011;32377;52.182;5.398;2023-04-06T01:36:58;25.33;;;14.60;;
46651;SDS011;32377;52.182;5.398;2023-04-06T01:39:24;25.20;;;14.43;;
46651;SDS011;32377;52.182;5.398;2023-04-06T01:41:51;28.13;;;14.67;;
46651;SDS011;32377;52.182;5.398;2023-04-06T01:44:16;25.17;;;13.30;;
46651;SDS011;32377;52.182;5.398;2023-04-06T01:46:43;22.83;;;13.47;;
46651;SDS011;32377;52.182;5.398;2023-04-06T01:49:09;21.27;;;12.90;;
46651;SDS011;32377;52.182;5.398;2023-04-06T01:51:35;24.50;;;13.90;;
46651;SDS011;32377;52.182;5.398;2023-04-06T01:54:00;21.00;;;12.77;;
46651;SDS011;32377;52.182;5.398;2023-04-06T01:56:26;21.90;;;12.17;;
46651;SDS011;32377;52.182;5.398;2023-04-06T01:58:52;27.33;;;12.87;;
46651;SDS011;32377;52.182;5.398;2023-04-06T02:01:17;24.40;;;13.17;;
46651;SDS011;32377;52.182;5.398;2023-04-06T02:03:43;20.13;;;12.10;;
46651;SDS011;32377;52.182;5.398;2023-04-06T02:06:08;21.97;;;13.13;;
46651;SDS011;32377;52.182;5.398;2023-04-06T02:08:34;21.40;;;12.50;;
46651;SDS011;32377;52.182;5.398;2023-04-06T02:11:00;28.00;;;13.93;;
46651;SDS011;32377;52.182;5.398;2023-04-06T02:13:25;22.23;;;13.10;;
46651;SDS011;32377;52.182;5.398;2023-04-06T02:15:51;25.77;;;14.07;;
46651;SDS011;32377;52.182;5.398;2023-04-06T02:18:17;21.73;;;12.97;;
46651;SDS011;32377;52.182;5.398;2023-04-06T02:20:43;21.63;;;12.87;;
46651;SDS011;32377;52.182;5.398;2023-04-06T02:23:09;24.83;;;13.00;;
46651;SDS011;32377;52.182;5.398;2023-04-06T02:25:36;21.57;;;12.30;;
46651;SDS011;32377;52.182;5.398;2023-04-06T02:28:01;22.10;;;12.27;;
46651;SDS011;32377;52.182;5.398;2023-04-06T02:30:27;24.00;;;12.37;;
46651;SDS011;32377;52.182;5.398;2023-04-06T02:32:53;22.07;;;13.13;;
46651;SDS011;32377;52.182;5.398;2023-04-06T02:35:19;22.03;;;12.97;;
46651;SDS011;32377;52.182;5.398;2023-04-06T02:37:45;21.57;;;12.87;;
46651;SDS011;32377;52.182;5.398;2023-04-06T02:40:10;24.00;;;12.97;;
46651;SDS011;32377;52.182;5.398;2023-04-06T02:42:36;22.00;;;12.97;;
46651;SDS011;32377;52.182;5.398;2023-04-06T02:45:02;22.37;;;12.70;;
46651;SDS011;32377;52.182;5.398;2023-04-06T02:47:27;25.60;;;12.83;;
46651;SDS011;32377;52.182;5.398;2023-04-06T02:49:53;24.07;;;13.27;;
46651;SDS011;32377;52.182;5.398;2023-04-06T02:52:18;23.77;;;13.13;;
46651;SDS011;32377;52.182;5.398;2023-04-06T02:54:44;21.50;;;12.13;;
46651;SDS011;32377;52.182;5.398;2023-04-06T02:57:10;24.20;;;12.70;;
46651;SDS011;32377;52.182;5.398;2023-04-06T02:59:35;22.13;;;12.60;;
46651;SDS011;32377;52.182;5.398;2023-04-06T03:02:01;24.20;;;14.03;;
46651;SDS011;32377;52.182;5.398;2023-04-06T03:04:26;20.77;;;11.90;;
46651;SDS011;32377;52.182;5.398;2023-04-06T03:06:53;26.17;;;12.17;;
46651;SDS011;32377;52.182;5.398;2023-04-06T03:09:19;26.77;;;13.37;;
46651;SDS011;32377;52.182;5.398;2023-04-06T03:11:45;21.40;;;13.17;;
46651;SDS011;32377;52.182;5.398;2023-04-06T03:14:11;21.17;;;12.13;;
46651;SDS011;32377;52.182;5.398;2023-04-06T03:16:36;21.37;;;12.30;;
46651;SDS011;32377;52.182;5.398;2023-04-06T03:19:02;23.90;;;12.70;;
46651;SDS011;32377;52.182;5.398;2023-04-06T03:21:27;23.73;;;11.83;;
46651;SDS011;32377;52.182;5.398;2023-04-06T03:23:53;21.20;;;12.77;;
46651;SDS011;32377;52.182;5.398;2023-04-06T03:26:19;20.40;;;12.60;;
46651;SDS011;32377;52.182;5.398;2023-04-06T03:28:44;22.83;;;12.40;;
46651;SDS011;32377;52.182;5.398;2023-04-06T03:31:10;19.13;;;11.90;;
46651;SDS011;32377;52.182;5.398;2023-04-06T03:33:35;20.73;;;11.57;;
46651;SDS011;32377;52.182;5.398;2023-04-06T03:36:01;20.23;;;11.13;;
46651;SDS011;32377;52.182;5.398;2023-04-06T03:38:26;19.03;;;12.13;;
46651;SDS011;32377;52.182;5.398;2023-04-06T03:40:52;22.77;;;12.00;;
46651;SDS011;32377;52.182;5.398;2023-04-06T03:43:18;19.63;;;11.50;;
46651;SDS011;32377;52.182;5.398;2023-04-06T03:45:43;20.40;;;10.87;;
46651;SDS011;32377;52.182;5.398;2023-04-06T03:48:09;23.90;;;11.40;;
46651;SDS011;32377;52.182;5.398;2023-04-06T03:50:34;20.20;;;11.43;;
46651;SDS011;32377;52.182;5.398;2023-04-06T03:53:00;29.00;;;12.23;;
46651;SDS011;32377;52.182;5.398;2023-04-06T03:55:27;17.67;;;11.40;;
46651;SDS011;32377;52.182;5.398;2023-04-06T03:59:14;21.60;;;11.40;;
46651;SDS011;32377;52.182;5.398;2023-04-06T04:01:40;20.10;;;11.83;;
46651;SDS011;32377;52.182;5.398;2023-04-06T04:04:05;24.70;;;12.03;;
46651;SDS011;32377;52.182;5.398;2023-04-06T04:06:31;19.47;;;11.83;;
46651;SDS011;32377;52.182;5.398;2023-04-06T04:08:56;21.83;;;11.73;;
46651;SDS011;32377;52.182;5.398;2023-04-06T04:11:22;19.60;;;11.33;;
46651;SDS011;32377;52.182;5.398;2023-04-06T04:13:47;20.57;;;10.97;;
46651;SDS011;32377;52.182;5.398;2023-04-06T04:16:13;21.03;;;11.83;;
46651;SDS011;32377;52.182;5.398;2023-04-06T04:18:39;22.33;;;11.33;;
46651;SDS011;32377;52.182;5.398;2023-04-06T04:21:05;23.10;;;12.37;;
46651;SDS011;32377;52.182;5.398;2023-04-06T04:23:30;20.47;;;11.30;;
46651;SDS011;32377;52.182;5.398;2023-04-06T04:25:56;21.80;;;11.67;;
46651;SDS011;32377;52.182;5.398;2023-04-06T04:28:21;20.90;;;12.27;;
46651;SDS011;32377;52.182;5.398;2023-04-06T04:30:47;22.70;;;11.90;;
46651;SDS011;32377;52.182;5.398;2023-04-06T04:33:12;22.47;;;12.27;;
46651;SDS011;32377;52.182;5.398;2023-04-06T04:35:38;21.53;;;11.53;;
46651;SDS011;32377;52.182;5.398;2023-04-06T04:38:03;23.67;;;12.10;;
46651;SDS011;32377;52.182;5.398;2023-04-06T04:40:30;21.93;;;12.33;;
46651;SDS011;32377;52.182;5.398;2023-04-06T04:42:55;21.17;;;12.03;;
46651;SDS011;32377;52.182;5.398;2023-04-06T04:45:21;21.03;;;12.70;;
46651;SDS011;32377;52.182;5.398;2023-04-06T04:47:46;20.80;;;12.50;;
46651;SDS011;32377;52.182;5.398;2023-04-06T04:50:12;24.57;;;13.50;;
46651;SDS011;32377;52.182;5.398;2023-04-06T04:52:37;24.90;;;13.03;;
46651;SDS011;32377;52.182;5.398;2023-04-06T04:55:03;22.93;;;13.40;;
46651;SDS011;32377;52.182;5.398;2023-04-06T04:57:29;23.10;;;12.73;;
46651;SDS011;32377;52.182;5.398;2023-04-06T04:59:55;23.30;;;12.73;;
46651;SDS011;32377;52.182;5.398;2023-04-06T05:02:22;22.47;;;12.97;;
46651;SDS011;32377;52.182;5.398;2023-04-06T05:04:47;23.00;;;13.47;;
46651;SDS011;32377;52.182;5.398;2023-04-06T05:07:13;25.63;;;13.23;;
46651;SDS011;32377;52.182;5.398;2023-04-06T05:09:40;24.43;;;12.97;;
46651;SDS011;32377;52.182;5.398;2023-04-06T05:12:06;25.03;;;14.07;;
46651;SDS011;32377;52.182;5.398;2023-04-06T05:14:32;23.90;;;13.87;;
46651;SDS011;32377;52.182;5.398;2023-04-06T05:16:57;24.00;;;13.63;;
46651;SDS011;32377;52.182;5.398;2023-04-06T05:19:23;22.97;;;13.67;;
46651;SDS011;32377;52.182;5.398;2023-04-06T05:21:49;28.63;;;14.70;;
46651;SDS011;32377;52.182;5.398;2023-04-06T05:24:14;27.60;;;13.83;;
46651;SDS011;32377;52.182;5.398;2023-04-06T05:26:40;26.13;;;15.23;;
46651;SDS011;32377;52.182;5.398;2023-04-06T05:29:06;24.20;;;14.30;;
46651;SDS011;32377;52.182;5.398;2023-04-06T05:31:32;28.53;;;14.63;;
46651;SDS011;32377;52.182;5.398;2023-04-06T05:33:58;28.50;;;14.47;;
46651;SDS011;32377;52.182;5.398;2023-04-06T05:36:23;26.87;;;15.13;;
46651;SDS011;32377;52.182;5.398;2023-04-06T05:38:49;23.97;;;14.50;;
46651;SDS011;32377;52.182;5.398;2023-04-06T05:41:17;26.70;;;14.47;;
46651;SDS011;32377;52.182;5.398;2023-04-06T05:43:43;27.60;;;14.60;;
46651;SDS011;32377;52.182;5.398;2023-04-06T05:46:09;29.80;;;14.70;;
46651;SDS011;32377;52.182;5.398;2023-04-06T05:48:35;25.60;;;14.43;;
46651;SDS011;32377;52.182;5.398;2023-04-06T05:51:00;28.47;;;15.40;;
46651;SDS011;32377;52.182;5.398;2023-04-06T05:53:27;36.70;;;14.83;;
46651;SDS011;32377;52.182;5.398;2023-04-06T05:55:54;26.93;;;14.43;;
46651;SDS011;32377;52.182;5.398;2023-04-06T05:58:19;28.83;;;15.33;;
46651;SDS011;32377;52.182;5.398;2023-04-06T06:00:45;26.03;;;15.17;;
46651;SDS011;32377;52.182;5.398;2023-04-06T06:03:11;30.53;;;15.57;;
46651;SDS011;32377;52.182;5.398;2023-04-06T06:05:37;27.23;;;15.97;;
46651;SDS011;32377;52.182;5.398;2023-04-06T06:08:03;35.40;;;15.80;;
46651;SDS011;32377;52.182;5.398;2023-04-06T06:10:29;29.37;;;16.27;;
46651;SDS011;32377;52.182;5.398;2023-04-06T06:12:55;28.27;;;16.13;;
46651;SDS011;32377;52.182;5.398;2023-04-06T06:15:20;31.93;;;15.93;;
46651;SDS011;32377;52.182;5.398;2023-04-06T06:17:46;37.87;;;16.77;;
46651;SDS011;32377;52.182;5.398;2023-04-06T06:20:11;31.48;;;15.85;;
46651;SDS011;32377;52.182;5.398;2023-04-06T06:22:37;30.67;;;16.73;;
46651;SDS011;32377;52.182;5.398;2023-04-06T06:25:05;31.50;;;16.63;;
46651;SDS011;32377;52.182;5.398;2023-04-06T06:27:30;32.07;;;17.17;;
46651;SDS011;32377;52.182;5.398;2023-04-06T06:29:56;27.83;;;15.90;;
46651;SDS011;32377;52.182;5.398;2023-04-06T06:32:21;29.80;;;16.15;;
46651;SDS011;32377;52.182;5.398;2023-04-06T06:34:47;30.75;;;16.65;;
46651;SDS011;32377;52.182;5.398;2023-04-06T06:37:13;28.27;;;16.08;;
46651;SDS011;32377;52.182;5.398;2023-04-06T06:39:38;33.65;;;17.38;;
46651;SDS011;32377;52.182;5.398;2023-04-06T06:42:04;35.95;;;17.65;;
46651;SDS011;32377;52.182;5.398;2023-04-06T06:44:30;31.25;;;16.30;;
46651;SDS011;32377;52.182;5.398;2023-04-06T06:46:55;30.38;;;17.67;;
46651;SDS011;32377;52.182;5.398;2023-04-06T06:49:21;34.05;;;18.33;;
46651;SDS011;32377;52.182;5.398;2023-04-06T06:51:47;34.90;;;18.65;;
46651;SDS011;32377;52.182;5.398;2023-04-06T06:54:12;37.95;;;18.25;;
46651;SDS011;32377;52.182;5.398;2023-04-06T06:56:38;34.40;;;17.55;;
46651;SDS011;32377;52.182;5.398;2023-04-06T06:59:04;36.05;;;19.33;;
46651;SDS011;32377;52.182;5.398;2023-04-06T07:01:32;29.52;;;17.67;;
46651;SDS011;32377;52.182;5.398;2023-04-06T07:04:01;30.48;;;17.58;;
46651;SDS011;32377;52.182;5.398;2023-04-06T07:06:26;31.70;;;17.75;;
46651;SDS011;32377;52.182;5.398;2023-04-06T07:08:52;32.85;;;16.63;;
46651;SDS011;32377;52.182;5.398;2023-04-06T07:11:18;32.53;;;18.02;;
46651;SDS011;32377;52.182;5.398;2023-04-06T07:13:43;33.53;;;18.00;;
46651;SDS011;32377;52.182;5.398;2023-04-06T07:16:09;34.72;;;17.73;;
46651;SDS011;32377;52.182;5.398;2023-04-06T07:18:34;36.15;;;18.75;;
46651;SDS011;32377;52.182;5.398;2023-04-06T07:21:00;32.22;;;18.13;;
46651;SDS011;32377;52.182;5.398;2023-04-06T07:23:25;32.67;;;19.05;;
46651;SDS011;32377;52.182;5.398;2023-04-06T07:25:51;34.05;;;18.85;;
46651;SDS011;32377;52.182;5.398;2023-04-06T07:28:18;31.85;;;18.10;;
46651;SDS011;32377;52.182;5.398;2023-04-06T07:30:44;35.22;;;17.50;;
46651;SDS011;32377;52.182;5.398;2023-04-06T07:33:10;37.38;;;19.73;;
46651;SDS011;32377;52.182;5.398;2023-04-06T07:35:35;35.83;;;19.67;;
46651;SDS011;32377;52.182;5.398;2023-04-06T07:38:01;32.95;;;18.45;;
46651;SDS011;32377;52.182;5.398;2023-04-06T07:40:27;33.13;;;17.80;;
46651;SDS011;32377;52.182;5.398;2023-04-06T07:42:53;37.90;;;19.27;;
46651;SDS011;32377;52.182;5.398;2023-04-06T07:45:19;32.03;;;19.55;;
46651;SDS011;32377;52.182;5.398;2023-04-06T07:47:45;30.70;;;19.35;;
46651;SDS011;32377;52.182;5.398;2023-04-06T07:50:10;35.08;;;19.35;;
46651;SDS011;32377;52.182;5.398;2023-04-06T07:52:37;34.85;;;18.90;;
46651;SDS011;32377;52.182;5.398;2023-04-06T07:55:04;29.02;;;18.38;;
46651;SDS011;32377;52.182;5.398;2023-04-06T07:57:30;33.28;;;19.15;;
46651;SDS011;32377;52.182;5.398;2023-04-06T07:59:55;37.60;;;20.30;;
46651;SDS011;32377;52.182;5.398;2023-04-06T08:02:21;34.55;;;19.92;;
46651;SDS011;32377;52.182;5.398;2023-04-06T08:04:47;35.40;;;19.70;;
46651;SDS011;32377;52.182;5.398;2023-04-06T08:07:12;34.63;;;19.35;;
46651;SDS011;32377;52.182;5.398;2023-04-06T08:09:38;32.95;;;20.58;;
46651;SDS011;32377;52.182;5.398;2023-04-06T08:12:04;35.15;;;19.52;;
46651;SDS011;32377;52.182;5.398;2023-04-06T08:14:29;33.60;;;20.48;;
46651;SDS011;32377;52.182;5.398;2023-04-06T08:16:55;33.25;;;19.98;;
46651;SDS011;32377;52.182;5.398;2023-04-06T08:19:21;39.58;;;20.65;;
46651;SDS011;32377;52.182;5.398;2023-04-06T08:21:46;36.50;;;20.00;;
46651;SDS011;32377;52.182;5.398;2023-04-06T08:24:12;37.45;;;20.80;;
46651;SDS011;32377;52.182;5.398;2023-04-06T08:26:38;35.80;;;19.73;;
46651;SDS011;32377;52.182;5.398;2023-04-06T08:29:04;33.22;;;19.90;;
46651;SDS011;32377;52.182;5.398;2023-04-06T08:31:32;36.63;;;20.15;;
46651;SDS011;32377;52.182;5.398;2023-04-06T08:33:58;42.22;;;20.95;;
46651;SDS011;32377;52.182;5.398;2023-04-06T08:36:24;32.42;;;19.67;;
46651;SDS011;32377;52.182;5.398;2023-04-06T08:38:50;43.42;;;21.00;;
46651;SDS011;32377;52.182;5.398;2023-04-06T08:41:15;33.10;;;20.27;;
46651;SDS011;32377;52.182;5.398;2023-04-06T08:43:52;35.97;;;20.83;;
46651;SDS011;32377;52.182;5.398;2023-04-06T08:46:26;41.42;;;21.00;;
46651;SDS011;32377;52.182;5.398;2023-04-06T08:48:56;38.40;;;22.10;;
46651;SDS011;32377;52.182;5.398;2023-04-06T08:51:23;34.63;;;21.13;;
46651;SDS011;32377;52.182;5.398;2023-04-06T08:53:52;34.35;;;20.25;;
46651;SDS011;32377;52.182;5.398;2023-04-06T08:56:22;39.65;;;21.00;;
46651;SDS011;32377;52.182;5.398;2023-04-06T08:58:49;42.90;;;21.42;;
46651;SDS011;32377;52.182;5.398;2023-04-06T09:01:17;33.67;;;20.75;;
46651;SDS011;32377;52.182;5.398;2023-04-06T09:03:45;39.50;;;22.05;;
46651;SDS011;32377;52.182;5.398;2023-04-06T09:06:13;42.90;;;22.55;;
46651;SDS011;32377;52.182;5.398;2023-04-06T09:08:40;38.78;;;22.58;;
46651;SDS011;32377;52.182;5.398;2023-04-06T09:11:06;39.90;;;22.98;;
46651;SDS011;32377;52.182;5.398;2023-04-06T09:13:49;38.92;;;22.95;;
46651;SDS011;32377;52.182;5.398;2023-04-06T09:16:16;38.63;;;22.60;;
46651;SDS011;32377;52.182;5.398;2023-04-06T09:18:42;40.78;;;23.08;;
46651;SDS011;32377;52.182;5.398;2023-04-06T09:21:08;39.65;;;22.20;;
46651;SDS011;32377;52.182;5.398;2023-04-06T09:23:34;38.13;;;22.23;;
46651;SDS011;32377;52.182;5.398;2023-04-06T09:26:07;37.47;;;22.60;;
46651;SDS011;32377;52.182;5.398;2023-04-06T09:28:52;39.88;;;22.58;;
46651;SDS011;32377;52.182;5.398;2023-04-06T09:33:48;38.67;;;21.52;;
46651;SDS011;32377;52.182;5.398;2023-04-06T09:36:15;39.17;;;23.23;;
46651;SDS011;32377;52.182;5.398;2023-04-06T09:39:00;35.55;;;21.85;;
46651;SDS011;32377;52.182;5.398;2023-04-06T09:41:35;42.15;;;23.17;;
46651;SDS011;32377;52.182;5.398;2023-04-06T09:44:11;35.05;;;22.38;;
46651;SDS011;32377;52.182;5.398;2023-04-06T09:46:38;38.22;;;23.65;;
46651;SDS011;32377;52.182;5.398;2023-04-06T09:49:06;38.85;;;22.38;;
46651;SDS011;32377;52.182;5.398;2023-04-06T09:51:36;35.03;;;21.70;;
46651;SDS011;32377;52.182;5.398;2023-04-06T09:54:06;33.92;;;21.90;;
46651;SDS011;32377;52.182;5.398;2023-04-06T09:59:18;38.40;;;21.17;;
46651;SDS011;32377;52.182;5.398;2023-04-06T10:01:56;35.88;;;22.35;;
46651;SDS011;32377;52.182;5.398;2023-04-06T10:04:31;44.17;;;23.90;;
46651;SDS011;32377;52.182;5.398;2023-04-06T10:07:13;45.20;;;23.42;;
46651;SDS011;32377;52.182;5.398;2023-04-06T10:09:40;45.58;;;24.40;;
46651;SDS011;32377;52.182;5.398;2023-04-06T10:12:10;45.13;;;25.00;;
46651;SDS011;32377;52.182;5.398;2023-04-06T10:14:37;38.90;;;23.52;;
46651;SDS011;32377;52.182;5.398;2023-04-06T10:17:04;43.25;;;23.20;;
46651;SDS011;32377;52.182;5.398;2023-04-06T10:19:41;42.35;;;22.30;;
46651;SDS011;32377;52.182;5.398;2023-04-06T10:22:15;36.77;;;20.97;;
46651;SDS011;32377;52.182;5.398;2023-04-06T10:24:49;33.60;;;18.88;;
46651;SDS011;32377;52.182;5.398;2023-04-06T10:27:15;31.90;;;18.48;;
46651;SDS011;32377;52.182;5.398;2023-04-06T10:29:44;31.38;;;18.17;;
46651;SDS011;32377;52.182;5.398;2023-04-06T10:32:12;33.45;;;18.30;;
46651;SDS011;32377;52.182;5.398;2023-04-06T10:34:38;31.00;;;17.00;;
46651;SDS011;32377;52.182;5.398;2023-04-06T10:37:16;37.05;;;15.98;;
46651;SDS011;32377;52.182;5.398;2023-04-06T10:39:53;30.08;;;16.20;;
46651;SDS011;32377;52.182;5.398;2023-04-06T10:42:38;31.27;;;17.38;;
46651;SDS011;32377;52.182;5.398;2023-04-06T10:45:07;26.80;;;16.50;;
46651;SDS011;32377;52.182;5.398;2023-04-06T10:47:43;30.42;;;14.23;;
46651;SDS011;32377;52.182;5.398;2023-04-06T10:50:10;29.40;;;14.95;;
46651;SDS011;32377;52.182;5.398;2023-04-06T10:52:40;30.75;;;14.23;;
46651;SDS011;32377;52.182;5.398;2023-04-06T10:55:06;26.95;;;15.30;;
46651;SDS011;32377;52.182;5.398;2023-04-06T10:57:33;26.55;;;14.35;;
46651;SDS011;32377;52.182;5.398;2023-04-06T11:00:01;25.23;;;13.95;;
46651;SDS011;32377;52.182;5.398;2023-04-06T11:02:28;20.00;;;12.48;;
46651;SDS011;32377;52.182;5.398;2023-04-06T11:04:57;18.80;;;10.70;;
46651;SDS011;32377;52.182;5.398;2023-04-06T11:07:24;17.27;;;10.57;;
46651;SDS011;32377;52.182;5.398;2023-04-06T11:09:55;16.02;;;9.23;;
46651;SDS011;32377;52.182;5.398;2023-04-06T11:12:30;17.63;;;9.38;;
46651;SDS011;32377;52.182;5.398;2023-04-06T11:14:59;11.63;;;7.00;;
46651;SDS011;32377;52.182;5.398;2023-04-06T11:17:36;13.82;;;7.25;;
46651;SDS011;32377;52.182;5.398;2023-04-06T11:20:02;14.10;;;6.95;;
46651;SDS011;32377;52.182;5.398;2023-04-06T11:22:30;12.48;;;7.05;;
46651;SDS011;32377;52.182;5.398;2023-04-06T11:25:05;11.20;;;6.32;;
46651;SDS011;32377;52.182;5.398;2023-04-06T11:27:32;14.52;;;6.68;;
46651;SDS011;32377;52.182;5.398;2023-04-06T11:30:01;12.88;;;7.43;;
46651;SDS011;32377;52.182;5.398;2023-04-06T11:32:27;11.77;;;6.78;;
46651;SDS011;32377;52.182;5.398;2023-04-06T11:34:53;13.80;;;7.30;;
46651;SDS011;32377;52.182;5.398;2023-04-06T11:37:19;11.38;;;7.20;;
46651;SDS011;32377;52.182;5.398;2023-04-06T11:42:24;10.98;;;7.20;;
46651;SDS011;32377;52.182;5.398;2023-04-06T11:44:51;12.30;;;7.50;;
46651;SDS011;32377;52.182;5.398;2023-04-06T11:47:19;14.02;;;7.30;;
46651;SDS011;32377;52.182;5.398;2023-04-06T11:49:51;12.27;;;7.45;;
46651;SDS011;32377;52.182;5.398;2023-04-06T11:52:18;11.70;;;7.20;;
46651;SDS011;32377;52.182;5.398;2023-04-06T11:54:51;14.57;;;7.60;;
46651;SDS011;32377;52.182;5.398;2023-04-06T11:57:18;12.38;;;7.22;;
46651;SDS011;32377;52.182;5.398;2023-04-06T11:59:45;11.93;;;6.90;;
46651;SDS011;32377;52.182;5.398;2023-04-06T12:02:11;10.70;;;6.45;;
46651;SDS011;32377;52.182;5.398;2023-04-06T12:04:37;12.02;;;7.22;;
46651;SDS011;32377;52.182;5.398;2023-04-06T12:07:03;12.82;;;7.43;;
46651;SDS011;32377;52.182;5.398;2023-04-06T12:09:29;12.00;;;7.75;;
46651;SDS011;32377;52.182;5.398;2023-04-06T12:11:55;12.90;;;8.00;;
46651;SDS011;32377;52.182;5.398;2023-04-06T12:14:21;14.93;;;8.05;;
46651;SDS011;32377;52.182;5.398;2023-04-06T12:16:46;18.70;;;8.65;;
46651;SDS011;32377;52.182;5.398;2023-04-06T12:19:12;12.45;;;8.57;;
46651;SDS011;32377;52.182;5.398;2023-04-06T12:21:38;16.40;;;9.45;;
46651;SDS011;32377;52.182;5.398;2023-04-06T12:24:03;16.52;;;9.75;;
46651;SDS011;32377;52.182;5.398;2023-04-06T12:26:30;15.85;;;9.43;;
46651;SDS011;32377;52.182;5.398;2023-04-06T12:28:56;16.98;;;10.02;;
46651;SDS011;32377;52.182;5.398;2023-04-06T12:31:22;17.38;;;10.95;;
46651;SDS011;32377;52.182;5.398;2023-04-06T12:33:50;15.77;;;10.27;;
46651;SDS011;32377;52.182;5.398;2023-04-06T12:36:17;21.80;;;11.10;;
46651;SDS011;32377;52.182;5.398;2023-04-06T12:38:44;17.90;;;10.45;;
46651;SDS011;32377;52.182;5.398;2023-04-06T12:41:11;20.33;;;10.93;;
46651;SDS011;32377;52.182;5.398;2023-04-06T12:43:38;17.95;;;10.85;;
46651;SDS011;32377;52.182;5.398;2023-04-06T12:46:05;18.48;;;10.85;;
46651;SDS011;32377;52.182;5.398;2023-04-06T12:48:31;21.50;;;11.95;;
46651;SDS011;32377;52.182;5.398;2023-04-06T12:50:57;20.98;;;12.18;;
46651;SDS011;32377;52.182;5.398;2023-04-06T12:53:24;18.35;;;11.40;;
46651;SDS011;32377;52.182;5.398;2023-04-06T12:55:50;18.38;;;11.27;;
46651;SDS011;32377;52.182;5.398;2023-04-06T12:58:16;20.67;;;10.88;;
46651;SDS011;32377;52.182;5.398;2023-04-06T13:00:42;15.38;;;10.30;;
46651;SDS011;32377;52.182;5.398;2023-04-06T13:03:08;17.02;;;10.98;;
46651;SDS011;32377;52.182;5.398;2023-04-06T13:05:34;21.30;;;11.75;;
46651;SDS011;32377;52.182;5.398;2023-04-06T13:08:00;20.52;;;11.50;;
46651;SDS011;32377;52.182;5.398;2023-04-06T13:10:25;19.00;;;11.65;;
46651;SDS011;32377;52.182;5.398;2023-04-06T13:12:51;19.48;;;10.98;;
46651;SDS011;32377;52.182;5.398;2023-04-06T13:15:17;17.58;;;10.55;;
46651;SDS011;32377;52.182;5.398;2023-04-06T13:17:43;18.60;;;11.18;;
46651;SDS011;32377;52.182;5.398;2023-04-06T13:20:09;17.65;;;11.57;;
46651;SDS011;32377;52.182;5.398;2023-04-06T13:22:35;19.42;;;11.73;;
46651;SDS011;32377;52.182;5.398;2023-04-06T13:25:01;21.75;;;12.15;;
46651;SDS011;32377;52.182;5.398;2023-04-06T13:27:26;17.20;;;11.40;;
46651;SDS011;32377;52.182;5.398;2023-04-06T13:29:52;19.70;;;11.82;;
46651;SDS011;32377;52.182;5.398;2023-04-06T13:32:19;18.10;;;11.60;;
46651;SDS011;32377;52.182;5.398;2023-04-06T13:34:45;16.42;;;11.10;;
46651;SDS011;32377;52.182;5.398;2023-04-06T13:37:12;21.00;;;11.82;;
46651;SDS011;32377;52.182;5.398;2023-04-06T13:39:38;21.67;;;12.88;;
46651;SDS011;32377;52.182;5.398;2023-04-06T13:42:04;19.55;;;12.10;;
46651;SDS011;32377;52.182;5.398;2023-04-06T13:44:30;19.40;;;12.55;;
46651;SDS011;32377;52.182;5.398;2023-04-06T13:46:56;28.10;;;14.48;;
46651;SDS011;32377;52.182;5.398;2023-04-06T13:49:21;19.92;;;12.80;;
46651;SDS011;32377;52.182;5.398;2023-04-06T13:51:47;25.30;;;12.43;;
46651;SDS011;32377;52.182;5.398;2023-04-06T13:54:13;20.20;;;12.68;;
46651;SDS011;32377;52.182;5.398;2023-04-06T13:56:38;19.90;;;13.20;;
46651;SDS011;32377;52.182;5.398;2023-04-06T13:59:04;20.90;;;12.13;;
46651;SDS011;32377;52.182;5.398;2023-04-06T14:01:30;23.45;;;13.88;;
46651;SDS011;32377;52.182;5.398;2023-04-06T14:03:56;21.30;;;12.45;;
46651;SDS011;32377;52.182;5.398;2023-04-06T14:06:21;23.40;;;13.30;;
46651;SDS011;32377;52.182;5.398;2023-04-06T14:08:47;23.17;;;13.60;;
46651;SDS011;32377;52.182;5.398;2023-04-06T14:11:12;24.17;;;13.77;;
46651;SDS011;32377;52.182;5.398;2023-04-06T14:13:39;23.65;;;14.18;;
46651;SDS011;32377;52.182;5.398;2023-04-06T14:16:05;20.08;;;13.07;;
46651;SDS011;32377;52.182;5.398;2023-04-06T14:18:31;20.30;;;13.40;;
46651;SDS011;32377;52.182;5.398;2023-04-06T14:20:59;22.45;;;14.10;;
46651;SDS011;32377;52.182;5.398;2023-04-06T14:23:25;22.73;;;14.23;;
46651;SDS011;32377;52.182;5.398;2023-04-06T14:26:00;20.77;;;12.48;;
46651;SDS011;32377;52.182;5.398;2023-04-06T14:28:28;22.63;;;14.82;;
46651;SDS011;32377;52.182;5.398;2023-04-06T14:30:54;23.85;;;13.63;;